createdAt,value
2019-01-29T00:02:01.919Z,105.77
2019-01-29T00:04:32.345Z,103.30
2019-01-29T00:07:02.630Z,103.10
2019-01-29T00:09:32.855Z,107.50
2019-01-29T00:12:03.305Z,103.67
2019-01-29T00:14:33.709Z,92.33
2019-01-29T00:17:03.968Z,98.80
2019-01-29T00:19:34.165Z,95.10
2019-01-29T00:22:04.498Z,87.27
2019-01-29T00:24:34.831Z,92.77
2019-01-29T00:27:05.418Z,88.03
2019-01-29T00:29:35.637Z,85.47
2019-01-29T00:32:06.111Z,86.83
2019-01-29T00:34:36.428Z,90.50
2019-01-29T00:37:06.880Z,87.53
2019-01-29T00:39:37.180Z,88.70
2019-01-29T00:42:08.627Z,88.87
2019-01-29T00:44:38.953Z,91.97
2019-01-29T00:47:09.223Z,92.77
2019-01-29T00:49:39.601Z,90.87
2019-01-29T00:52:09.934Z,92.93
2019-01-29T00:54:40.162Z,88.70
2019-01-29T00:57:10.374Z,92.70
2019-01-29T00:59:40.594Z,91.80
2019-01-29T01:02:10.922Z,87.07
2019-01-29T01:04:41.248Z,88.47
2019-01-29T01:07:11.524Z,89.40
2019-01-29T01:09:41.808Z,91.87
2019-01-29T01:12:12.082Z,86.27
2019-01-29T01:14:42.394Z,82.40
2019-01-29T01:17:12.869Z,82.13
2019-01-29T01:19:43.188Z,85.00
2019-01-29T01:22:13.422Z,83.00
2019-01-29T01:24:43.780Z,80.07
2019-01-29T01:27:14.220Z,83.80
2019-01-29T01:29:44.482Z,86.97
2019-01-29T01:32:14.742Z,85.07
2019-01-29T01:34:45.241Z,81.87
2019-01-29T01:37:15.662Z,85.50
2019-01-29T01:39:46.091Z,77.47
2019-01-29T01:42:16.408Z,81.80
2019-01-29T01:44:47.115Z,86.00
2019-01-29T01:47:17.518Z,79.57
2019-01-29T01:49:47.771Z,79.90
2019-01-29T01:52:18.531Z,79.07
2019-01-29T01:54:48.803Z,83.37
2019-01-29T01:57:19.105Z,82.03
2019-01-29T01:59:49.334Z,89.40
2019-01-29T02:02:19.602Z,85.47
2019-01-29T02:04:49.928Z,81.60
2019-01-29T02:07:20.090Z,86.53
2019-01-29T02:09:50.480Z,87.97
2019-01-29T02:12:20.923Z,88.50
2019-01-29T02:14:51.337Z,88.80
2019-01-29T02:17:22.565Z,88.80
2019-01-29T02:19:52.952Z,87.73
2019-01-29T02:22:23.229Z,86.20
2019-01-29T02:24:53.550Z,86.50
2019-01-29T02:27:23.991Z,91.20
2019-01-29T02:29:54.307Z,91.80
2019-01-29T02:32:24.661Z,87.40
2019-01-29T02:34:55.010Z,88.63
2019-01-29T02:37:25.217Z,92.47
2019-01-29T02:39:55.663Z,90.60
2019-01-29T02:42:26.285Z,92.97
2019-01-29T02:44:56.502Z,93.13
2019-01-29T02:47:26.766Z,97.27
2019-01-29T02:49:57.102Z,94.43
2019-01-29T02:52:27.288Z,93.47
2019-01-29T02:54:57.646Z,94.60
2019-01-29T02:57:28.281Z,97.10
2019-01-29T02:59:58.710Z,95.50
2019-01-29T03:02:29.244Z,90.93
2019-01-29T03:04:59.490Z,99.27
2019-01-29T03:07:29.695Z,88.57
2019-01-29T03:10:00.080Z,87.70
2019-01-29T03:12:30.610Z,89.20
2019-01-29T03:15:00.998Z,85.83
2019-01-29T03:17:31.335Z,86.83
2019-01-29T03:20:01.819Z,88.87
2019-01-29T03:22:32.030Z,92.80
2019-01-29T03:25:02.394Z,93.00
2019-01-29T03:27:32.840Z,93.83
2019-01-29T03:30:03.253Z,90.70
2019-01-29T03:32:33.485Z,94.97
2019-01-29T03:35:04.071Z,96.43
2019-01-29T03:37:34.384Z,97.60
2019-01-29T03:40:06.427Z,92.13
2019-01-29T03:42:36.732Z,95.63
2019-01-29T03:45:08.886Z,91.87
2019-01-29T03:47:39.249Z,94.20
2019-01-29T03:50:11.954Z,94.27
2019-01-29T03:52:42.268Z,92.57
2019-01-29T03:55:12.776Z,91.30
2019-01-29T03:57:43.098Z,96.63
2019-01-29T04:00:22.080Z,89.67
2019-01-29T04:02:52.459Z,84.27
2019-01-29T04:05:22.772Z,84.67
2019-01-29T04:07:53.070Z,85.93
2019-01-29T04:10:23.643Z,84.73
2019-01-29T04:12:53.942Z,83.67
2019-01-29T04:15:24.297Z,83.27
2019-01-29T04:17:58.721Z,80.43
2019-01-29T04:20:29.024Z,80.40
2019-01-29T04:22:59.379Z,79.50
2019-01-29T04:25:29.795Z,76.70
2019-01-29T04:28:00.329Z,79.03
2019-01-29T04:30:30.644Z,76.50
2019-01-29T04:33:01.030Z,75.67
2019-01-29T04:35:31.334Z,72.83
2019-01-29T04:38:01.720Z,75.67
2019-01-29T04:40:32.051Z,73.20
2019-01-29T04:43:02.482Z,69.57
2019-01-29T04:45:32.842Z,70.13
2019-01-29T04:48:03.232Z,69.10
2019-01-29T04:50:33.494Z,68.23
2019-01-29T04:53:03.880Z,65.90
2019-01-29T04:55:34.277Z,63.97
2019-01-29T04:58:04.943Z,65.90
2019-01-29T05:00:35.268Z,63.80
2019-01-29T05:03:05.681Z,65.00
2019-01-29T05:05:35.967Z,64.13
2019-01-29T05:08:06.339Z,60.03
2019-01-29T05:10:36.549Z,62.60
2019-01-29T05:13:06.822Z,63.10
2019-01-29T05:15:37.141Z,60.17
2019-01-29T05:18:07.670Z,62.27
2019-01-29T05:20:37.933Z,60.97
2019-01-29T05:23:08.211Z,59.37
2019-01-29T05:25:38.611Z,59.10
2019-01-29T05:28:09.131Z,60.27
2019-01-29T05:30:39.454Z,56.93
2019-01-29T05:33:09.743Z,59.80
2019-01-29T05:35:40.241Z,59.13
2019-01-29T05:38:10.644Z,62.00
2019-01-29T05:40:40.877Z,59.87
2019-01-29T05:43:11.171Z,62.67
2019-01-29T05:45:41.519Z,62.27
2019-01-29T05:48:11.924Z,67.47
2019-01-29T05:50:42.472Z,63.87
2019-01-29T05:53:13.062Z,65.33
2019-01-29T05:55:43.236Z,68.50
2019-01-29T05:58:13.684Z,69.13
2019-01-29T06:00:44.152Z,67.97
2019-01-29T06:03:14.539Z,66.87
2019-01-29T06:05:44.880Z,70.47
2019-01-29T06:08:15.236Z,72.83
2019-01-29T06:10:45.580Z,69.23
2019-01-29T06:13:16.067Z,69.07
2019-01-29T06:15:46.512Z,65.67
2019-01-29T06:18:16.912Z,67.57
2019-01-29T06:20:47.347Z,66.17
2019-01-29T06:23:17.721Z,68.03
2019-01-29T06:25:48.010Z,65.20
2019-01-29T06:28:18.359Z,64.53
2019-01-29T06:30:48.791Z,66.20
2019-01-29T06:33:19.094Z,64.33
2019-01-29T06:35:49.444Z,67.63
2019-01-29T06:38:19.781Z,65.27
2019-01-29T06:40:51.679Z,65.50
2019-01-29T06:43:21.963Z,63.47
2019-01-29T06:45:52.745Z,63.97
2019-01-29T06:48:23.210Z,64.17
2019-01-29T06:50:53.506Z,60.77
2019-01-29T06:53:23.865Z,58.63
2019-01-29T06:55:54.149Z,59.07
2019-01-29T06:58:24.423Z,59.87
2019-01-29T07:00:54.650Z,57.03
2019-01-29T07:03:25.031Z,57.33
2019-01-29T07:05:55.259Z,57.03
2019-01-29T07:08:25.474Z,58.20
2019-01-29T07:10:55.765Z,57.23
2019-01-29T07:13:26.048Z,57.23
2019-01-29T07:16:07.012Z,55.50
2019-01-29T07:18:40.857Z,54.47
2019-01-29T07:21:11.231Z,56.93
2019-01-29T07:23:41.523Z,58.83
2019-01-29T07:26:11.774Z,58.53
2019-01-29T07:28:42.027Z,55.43
2019-01-29T07:31:12.313Z,60.83
2019-01-29T07:33:42.621Z,61.20
2019-01-29T07:36:13.072Z,61.17
2019-01-29T07:38:43.385Z,62.87
2019-01-29T07:41:13.675Z,60.47
2019-01-29T07:43:44.016Z,60.83
2019-01-29T07:46:14.443Z,58.03
2019-01-29T07:48:44.750Z,55.00
2019-01-29T07:51:15.042Z,54.10
2019-01-29T07:53:45.405Z,52.67
2019-01-29T07:56:15.747Z,51.43
2019-01-29T07:58:45.950Z,49.77
2019-01-29T08:01:16.223Z,48.87
2019-01-29T08:03:46.590Z,49.03
2019-01-29T08:06:16.869Z,48.03
2019-01-29T08:08:47.138Z,47.77
2019-01-29T08:11:17.386Z,44.90
2019-01-29T08:13:48.655Z,47.03
2019-01-29T08:16:18.996Z,47.73
2019-01-29T08:18:49.401Z,47.77
2019-01-29T08:21:19.774Z,46.77
2019-01-29T08:23:50.165Z,47.60
2019-01-29T08:26:20.493Z,45.50
2019-01-29T08:28:51.013Z,44.73
2019-01-29T08:31:21.553Z,44.67
2019-01-29T08:33:52.121Z,44.13
2019-01-29T08:36:22.421Z,45.17
2019-01-29T08:38:52.771Z,45.80
2019-01-29T08:41:23.070Z,47.83
2019-01-29T08:43:53.389Z,47.47
2019-01-29T08:46:23.693Z,46.03
2019-01-29T08:48:54.054Z,46.60
2019-01-29T08:51:24.431Z,46.40
2019-01-29T08:53:54.849Z,46.33
2019-01-29T08:56:25.184Z,47.17
2019-01-29T08:58:59.538Z,46.27
2019-01-29T09:01:32.499Z,45.83
2019-01-29T09:04:03.640Z,49.30
2019-01-29T09:06:33.852Z,49.40
2019-01-29T09:09:08.393Z,47.10
2019-01-29T09:11:39.139Z,44.90
2019-01-29T09:14:09.493Z,42.93
2019-01-29T09:16:39.775Z,39.07
2019-01-29T09:19:10.096Z,42.33
2019-01-29T09:21:41.374Z,43.00
2019-01-29T09:24:12.870Z,40.00
2019-01-29T09:26:43.155Z,41.77
2019-01-29T09:29:17.763Z,43.40
2019-01-29T09:31:45.581Z,75.57
2019-01-29T09:34:15.955Z,60.90
2019-01-29T09:36:46.464Z,51.50
2019-01-29T09:39:16.825Z,43.47
2019-01-29T09:41:47.145Z,40.60
2019-01-29T09:44:17.489Z,40.27
2019-01-29T09:46:47.850Z,41.20
2019-01-29T09:49:18.127Z,41.57
2019-01-29T09:51:48.483Z,38.47
2019-01-29T09:54:18.795Z,36.33
2019-01-29T09:56:56.001Z,37.83
2019-01-29T09:59:27.545Z,36.60
2019-01-29T10:01:57.842Z,38.47
2019-01-29T10:04:28.294Z,36.63
2019-01-29T10:06:58.634Z,38.90
2019-01-29T10:09:28.924Z,35.70
2019-01-29T10:11:59.256Z,34.27
2019-01-29T10:14:29.611Z,35.03
2019-01-29T10:16:59.959Z,31.37
2019-01-29T10:19:30.291Z,27.80
2019-01-29T10:22:00.609Z,48.50
2019-01-29T10:24:30.914Z,30.20
2019-01-29T10:27:01.254Z,29.90
2019-01-29T10:29:31.520Z,27.33
2019-01-29T10:32:01.801Z,31.53
2019-01-29T10:34:33.221Z,30.57
2019-01-29T10:37:03.670Z,29.67
2019-01-29T10:39:34.032Z,29.40
2019-01-29T10:42:05.969Z,32.27
2019-01-29T10:44:36.499Z,33.43
2019-01-29T10:47:06.813Z,31.47
2019-01-29T10:49:37.243Z,31.97
2019-01-29T10:52:07.443Z,30.10
2019-01-29T10:54:37.765Z,33.40
2019-01-29T10:57:10.099Z,33.40
2019-01-29T10:59:41.153Z,32.30
2019-01-29T11:02:11.391Z,33.47
2019-01-29T11:04:41.601Z,30.63
2019-01-29T11:07:11.920Z,29.43
2019-01-29T11:09:42.200Z,22.50
2019-01-29T11:12:12.722Z,28.40
2019-01-29T11:14:43.009Z,26.00
2019-01-29T11:17:13.275Z,27.83
2019-01-29T11:19:43.767Z,25.97
2019-01-29T11:22:14.123Z,27.33
2019-01-29T11:24:45.132Z,26.07
2019-01-29T11:27:15.714Z,26.60
2019-01-29T11:29:46.017Z,23.43
2019-01-29T11:32:16.340Z,26.63
2019-01-29T11:34:46.530Z,24.33
2019-01-29T11:37:16.731Z,27.27
2019-01-29T11:39:47.077Z,24.80
2019-01-29T11:42:17.320Z,25.47
2019-01-29T11:44:48.484Z,25.53
2019-01-29T11:47:18.714Z,24.83
2019-01-29T11:49:49.103Z,23.20
2019-01-29T11:52:19.471Z,23.20
2019-01-29T11:54:50.462Z,22.50
2019-01-29T11:57:21.077Z,24.03
2019-01-29T11:59:51.440Z,24.00
2019-01-29T12:02:28.233Z,23.20
2019-01-29T12:04:54.714Z,19.83
2019-01-29T12:07:24.940Z,21.93
2019-01-29T12:09:56.529Z,21.27
2019-01-29T12:12:27.683Z,20.27
2019-01-29T12:14:58.048Z,20.40
2019-01-29T12:17:28.344Z,20.27
2019-01-29T12:19:58.547Z,20.17
2019-01-29T12:22:28.811Z,20.83
2019-01-29T12:24:59.123Z,18.73
2019-01-29T12:27:29.461Z,18.30
2019-01-29T12:29:59.781Z,20.37
2019-01-29T12:32:30.124Z,18.93
2019-01-29T12:35:00.390Z,18.53
2019-01-29T12:37:30.821Z,19.80
2019-01-29T12:40:01.310Z,20.07
2019-01-29T12:42:31.613Z,20.30
2019-01-29T12:45:01.842Z,19.37
2019-01-29T12:47:33.481Z,21.63
2019-01-29T12:50:05.000Z,20.97
2019-01-29T12:52:44.911Z,21.53
2019-01-29T12:55:15.642Z,21.30
2019-01-29T12:57:46.045Z,21.77
2019-01-29T13:00:17.003Z,20.00
2019-01-29T13:02:47.244Z,20.87
2019-01-29T13:05:18.425Z,16.20
2019-01-29T13:07:48.630Z,20.07
2019-01-29T13:10:20.004Z,20.20
2019-01-29T13:12:50.285Z,20.20
2019-01-29T13:15:23.289Z,20.30
2019-01-29T13:17:53.570Z,19.90
2019-01-29T13:20:24.013Z,20.13
2019-01-29T13:22:54.431Z,19.37
2019-01-29T13:25:24.754Z,18.57
2019-01-29T13:27:55.083Z,17.23
2019-01-29T13:30:32.204Z,16.73
2019-01-29T13:33:02.579Z,20.47
2019-01-29T13:35:34.402Z,19.13
2019-01-29T13:38:05.546Z,19.43
2019-01-29T13:40:35.851Z,20.53
2019-01-29T13:43:06.453Z,18.47
2019-01-29T13:45:36.726Z,18.60
2019-01-29T13:48:06.964Z,19.70
2019-01-29T13:50:40.096Z,19.97
2019-01-29T13:53:10.524Z,19.40
2019-01-29T13:55:41.796Z,19.60
2019-01-29T13:58:12.133Z,20.40
2019-01-29T14:00:42.611Z,21.00
2019-01-29T14:03:13.431Z,21.37
2019-01-29T14:05:43.695Z,17.70
2019-01-29T14:08:14.131Z,20.60
2019-01-29T14:10:44.504Z,22.93
2019-01-29T14:13:14.947Z,22.00
2019-01-29T14:15:48.235Z,21.63
2019-01-29T14:18:20.225Z,21.97
2019-01-29T14:20:50.501Z,22.50
2019-01-29T14:23:20.759Z,22.20
2019-01-29T14:25:51.082Z,22.10
2019-01-29T14:28:21.359Z,22.77
2019-01-29T14:30:51.707Z,22.30
2019-01-29T14:33:21.974Z,23.30
2019-01-29T14:35:52.281Z,21.70
2019-01-29T14:39:01.406Z,21.10
2019-01-29T14:41:32.264Z,18.87
2019-01-29T14:44:02.835Z,22.37
2019-01-29T14:46:33.180Z,24.03
2019-01-29T14:49:03.684Z,24.70
2019-01-29T14:51:33.952Z,25.77
2019-01-29T14:54:04.358Z,25.67
2019-01-29T14:56:34.591Z,24.63
2019-01-29T14:59:05.021Z,27.00
2019-01-29T15:01:35.226Z,25.07
2019-01-29T15:04:05.919Z,26.20
2019-01-29T15:06:36.368Z,25.77
2019-01-29T15:09:10.797Z,28.60
2019-01-29T15:11:41.129Z,27.03
2019-01-29T15:14:11.599Z,26.90
2019-01-29T15:16:52.653Z,25.77
2019-01-29T15:19:25.305Z,25.90
2019-01-29T15:21:55.802Z,26.40
2019-01-29T15:24:26.076Z,27.47
2019-01-29T15:27:05.076Z,26.57
2019-01-29T15:29:28.522Z,25.23
2019-01-29T15:31:58.800Z,25.07
2019-01-29T15:34:29.100Z,27.30
2019-01-29T15:36:59.506Z,24.87
2019-01-29T15:39:29.956Z,25.00
2019-01-29T15:42:00.609Z,22.40
2019-01-29T15:44:31.239Z,21.63
2019-01-29T15:47:01.754Z,24.53
2019-01-29T15:49:32.726Z,23.97
2019-01-29T15:52:03.111Z,24.67
2019-01-29T15:54:33.489Z,25.93
2019-01-29T15:57:03.981Z,26.27
2019-01-29T15:59:42.616Z,25.93
2019-01-29T16:02:06.557Z,24.60
2019-01-29T16:04:36.966Z,24.90
2019-01-29T16:07:07.269Z,25.17
2019-01-29T16:09:37.750Z,26.77
2019-01-29T16:12:08.086Z,26.10
2019-01-29T16:14:38.601Z,25.73
2019-01-29T16:17:09.533Z,27.50
2019-01-29T16:19:39.937Z,27.10
2019-01-29T16:22:10.250Z,26.93
2019-01-29T16:24:41.003Z,27.30
2019-01-29T16:27:11.381Z,27.67
2019-01-29T16:29:41.741Z,26.40
2019-01-29T16:32:12.045Z,28.13
2019-01-29T16:34:42.413Z,28.60
2019-01-29T16:37:12.734Z,28.70
2019-01-29T16:39:43.057Z,28.53
2019-01-29T16:42:13.355Z,23.17
2019-01-29T16:44:43.809Z,28.37
2019-01-29T16:47:14.260Z,28.90
2019-01-29T16:49:44.690Z,27.87
2019-01-29T16:52:15.232Z,28.43
2019-01-29T16:54:45.659Z,26.40
2019-01-29T16:57:16.024Z,25.87
2019-01-29T16:59:46.437Z,25.73
2019-01-29T17:02:16.857Z,25.37
2019-01-29T17:04:47.324Z,27.33
2019-01-29T17:07:17.712Z,23.10
2019-01-29T17:09:48.661Z,23.20
2019-01-29T17:12:19.256Z,25.80
2019-01-29T17:14:49.980Z,24.53
2019-01-29T17:17:20.482Z,23.83
2019-01-29T17:19:51.132Z,23.57
2019-01-29T17:22:21.560Z,24.13
2019-01-29T17:24:51.965Z,22.87
2019-01-29T17:27:22.588Z,23.37
2019-01-29T17:29:53.079Z,21.37
2019-01-29T17:32:30.274Z,22.07
2019-01-29T17:34:55.502Z,22.63
2019-01-29T17:37:25.851Z,20.83
2019-01-29T17:39:57.288Z,22.87
2019-01-29T17:42:27.680Z,25.30
2019-01-29T17:44:58.419Z,23.43
2019-01-29T17:47:28.752Z,23.13
2019-01-29T17:49:59.041Z,23.13
2019-01-29T17:52:29.429Z,22.33
2019-01-29T17:54:59.665Z,23.50
2019-01-29T17:57:30.123Z,21.90
2019-01-29T18:00:00.379Z,20.47
2019-01-29T18:02:30.674Z,21.27
2019-01-29T18:05:00.895Z,22.00
2019-01-29T18:07:31.057Z,20.10
2019-01-29T18:10:01.341Z,21.77
2019-01-29T18:12:32.527Z,22.03
2019-01-29T18:15:03.472Z,22.90
2019-01-29T18:17:34.001Z,24.07
2019-01-29T18:20:04.501Z,22.77
2019-01-29T18:22:34.853Z,23.43
2019-01-29T18:29:36.296Z,22.13
2019-01-29T18:32:06.743Z,19.40
2019-01-29T18:34:37.281Z,21.43
2019-01-29T18:37:08.754Z,20.30
2019-01-29T18:39:39.081Z,19.97
2019-01-29T18:42:09.690Z,22.00
2019-01-29T18:44:40.067Z,20.77
2019-01-29T18:47:11.055Z,20.73
2019-01-29T18:49:41.691Z,21.17
2019-01-29T18:52:12.427Z,20.30
2019-01-29T18:54:42.844Z,20.70
2019-01-29T18:57:13.171Z,17.70
2019-01-29T18:59:43.725Z,20.17
2019-01-29T19:02:13.970Z,21.03
2019-01-29T19:04:45.295Z,20.87
2019-01-29T19:07:15.604Z,20.77
2019-01-29T19:09:45.924Z,19.47
2019-01-29T19:12:16.417Z,19.67
2019-01-29T19:14:46.730Z,19.27
2019-01-29T19:17:17.178Z,20.47
2019-01-29T19:19:48.029Z,20.63
2019-01-29T19:22:18.378Z,20.67
2019-01-29T19:24:48.690Z,21.60
2019-01-29T19:27:19.352Z,22.47
2019-01-29T19:29:49.652Z,22.90
2019-01-29T19:32:20.065Z,23.73
2019-01-29T19:34:50.411Z,24.80
2019-01-29T19:37:20.910Z,24.93
2019-01-29T19:39:52.419Z,24.10
2019-01-29T19:42:27.636Z,27.23
2019-01-29T19:44:54.948Z,25.87
2019-01-29T19:47:25.469Z,29.10
2019-01-29T19:49:57.741Z,26.93
2019-01-29T19:52:28.219Z,27.53
2019-01-29T19:54:59.739Z,28.13
2019-01-29T19:57:30.359Z,26.33
2019-01-29T20:00:00.798Z,27.17
2019-01-29T20:02:31.222Z,27.63
2019-01-29T20:05:01.989Z,28.27
2019-01-29T20:07:33.347Z,28.60
2019-01-29T20:10:04.077Z,29.20
2019-01-29T20:12:34.698Z,29.13
2019-01-29T20:15:06.902Z,28.17
2019-01-29T20:23:07.992Z,26.57
2019-01-29T20:25:44.286Z,26.53
2019-01-29T20:28:14.976Z,25.43
2019-01-29T20:34:54.852Z,23.33
2019-01-29T20:37:25.247Z,24.77
2019-01-29T20:39:58.084Z,24.27
2019-01-29T20:43:51.986Z,25.23
2019-01-29T20:48:35.095Z,24.47
2019-01-29T20:51:06.236Z,26.80
2019-01-29T20:53:36.472Z,27.37
2019-01-29T20:56:07.046Z,24.77
2019-01-29T20:58:37.439Z,26.03
2019-01-29T21:01:07.659Z,24.77
2019-01-29T21:03:38.289Z,26.37
2019-01-29T21:06:08.812Z,27.43
2019-01-29T21:08:39.262Z,26.07
2019-01-29T21:11:09.411Z,27.13
2019-01-29T21:13:39.733Z,27.17
2019-01-29T21:16:10.124Z,27.53
2019-01-29T21:18:40.399Z,27.40
2019-01-29T21:21:10.644Z,27.60
2019-01-29T21:23:40.885Z,26.90
2019-01-29T21:26:11.264Z,27.20
2019-01-29T21:28:41.543Z,25.93
2019-01-29T21:31:11.863Z,27.90
2019-01-29T21:33:42.253Z,27.40
2019-01-29T21:36:12.537Z,26.00
2019-01-29T21:38:42.790Z,26.47
2019-01-29T21:41:13.075Z,27.67
2019-01-29T21:43:43.324Z,27.53
2019-01-29T21:46:13.583Z,27.90
2019-01-29T21:48:43.841Z,26.83
2019-01-29T21:51:14.202Z,27.73
2019-01-29T21:53:45.486Z,26.10
2019-01-29T21:56:15.732Z,27.33
2019-01-29T21:58:46.002Z,29.53
2019-01-29T22:01:19.641Z,34.20
2019-01-29T22:03:50.065Z,39.03
2019-01-29T22:06:20.314Z,36.73
2019-01-29T22:08:50.625Z,32.20
2019-01-29T22:11:20.839Z,29.13
2019-01-29T22:13:51.259Z,31.13
2019-01-29T22:16:21.465Z,30.47
2019-01-29T22:18:51.792Z,30.63
2019-01-29T22:21:21.971Z,30.33
2019-01-29T22:23:56.243Z,29.63
2019-01-29T22:26:26.680Z,29.73
2019-01-29T22:28:56.850Z,30.13
2019-01-29T22:31:27.214Z,29.93
2019-01-29T22:33:57.432Z,31.13
2019-01-29T22:36:27.768Z,29.60
2019-01-29T22:38:57.988Z,28.10
2019-01-29T22:41:28.225Z,27.73
2019-01-29T22:43:58.471Z,27.23
2019-01-29T22:46:29.046Z,26.87
2019-01-29T22:48:59.277Z,28.40
2019-01-29T22:51:29.501Z,27.23
2019-01-29T22:53:59.765Z,27.53
2019-01-29T22:56:29.931Z,29.07
2019-01-29T22:59:00.188Z,28.00
2019-01-29T23:01:40.237Z,28.13
2019-01-29T23:04:20.092Z,28.67
2019-01-29T23:06:59.418Z,29.67
2019-01-29T23:09:29.722Z,28.93
2019-01-29T23:12:00.084Z,27.33
2019-01-29T23:14:32.304Z,29.07
2019-01-29T23:17:02.517Z,28.77
2019-01-29T23:19:32.965Z,30.13
2019-01-29T23:22:03.504Z,29.17
2019-01-29T23:24:33.833Z,28.23
2019-01-29T23:27:04.214Z,29.17
2019-01-29T23:29:43.228Z,28.87
2019-01-29T23:32:06.534Z,28.37
2019-01-29T23:34:36.766Z,30.73
2019-01-29T23:37:07.185Z,29.50
2019-01-29T23:39:37.503Z,27.50
2019-01-29T23:42:07.942Z,27.23
2019-01-29T23:44:38.139Z,28.47
2019-01-29T23:47:08.350Z,28.97
2019-01-29T23:49:38.620Z,28.70
2019-01-29T23:52:08.893Z,29.53
2019-01-29T23:54:39.165Z,29.37
2019-01-29T23:57:09.446Z,29.83
2019-01-29T23:59:39.744Z,30.40
